sensor_id;sensor_type;location;lat;lon;timestamp;temperature;humidity
75210;DHT22;63796;53.136;14.882;2023-07-02T00:00:12;18.10;99.90
75210;DHT22;63796;53.136;14.882;2023-07-02T00:03:00;18.00;99.90
75210;DHT22;63796;53.136;14.882;2023-07-02T00:05:28;18.00;99.90
75210;DHT22;63796;53.136;14.882;2023-07-02T00:07:55;18.00;99.90
75210;DHT22;63796;53.136;14.882;2023-07-02T00:10:22;18.10;99.90
75210;DHT22;63796;53.136;14.882;2023-07-02T00:12:50;18.00;99.90
75210;DHT22;63796;53.136;14.882;2023-07-02T00:15:17;17.90;99.90
75210;DHT22;63796;53.136;14.882;2023-07-02T00:17:44;18.00;99.90
75210;DHT22;63796;53.136;14.882;2023-07-02T00:20:12;18.10;99.90
75210;DHT22;63796;53.136;14.882;2023-07-02T00:22:43;18.10;99.90
75210;DHT22;63796;53.136;14.882;2023-07-02T00:25:12;17.90;99.90
75210;DHT22;63796;53.136;14.882;2023-07-02T00:27:41;17.90;99.90
75210;DHT22;63796;53.136;14.882;2023-07-02T00:30:09;17.90;99.90
75210;DHT22;63796;53.136;14.882;2023-07-02T00:32:36;17.80;99.90
75210;DHT22;63796;53.136;14.882;2023-07-02T00:35:04;17.80;99.90
75210;DHT22;63796;53.136;14.882;2023-07-02T00:37:32;17.90;99.90
75210;DHT22;63796;53.136;14.882;2023-07-02T00:39:59;17.90;99.90
75210;DHT22;63796;53.136;14.882;2023-07-02T00:42:26;17.90;99.90
75210;DHT22;63796;53.136;14.882;2023-07-02T00:44:56;17.80;99.90
75210;DHT22;63796;53.136;14.882;2023-07-02T00:47:33;17.90;99.90
75210;DHT22;63796;53.136;14.882;2023-07-02T00:50:02;17.90;99.90
75210;DHT22;63796;53.136;14.882;2023-07-02T00:52:29;17.90;99.90
75210;DHT22;63796;53.136;14.882;2023-07-02T00:54:57;17.90;99.90
75210;DHT22;63796;53.136;14.882;2023-07-02T00:57:24;17.90;99.90
75210;DHT22;63796;53.136;14.882;2023-07-02T00:59:57;17.90;99.90
75210;DHT22;63796;53.136;14.882;2023-07-02T01:02:27;18.00;99.90
75210;DHT22;63796;53.136;14.882;2023-07-02T01:04:57;18.00;99.90
75210;DHT22;63796;53.136;14.882;2023-07-02T01:07:27;17.90;99.90
75210;DHT22;63796;53.136;14.882;2023-07-02T01:09:55;17.80;99.90
75210;DHT22;63796;53.136;14.882;2023-07-02T01:12:22;17.80;99.90
75210;DHT22;63796;53.136;14.882;2023-07-02T01:14:53;17.90;99.90
75210;DHT22;63796;53.136;14.882;2023-07-02T01:17:22;17.90;99.90
75210;DHT22;63796;53.136;14.882;2023-07-02T01:19:52;18.10;99.90
75210;DHT22;63796;53.136;14.882;2023-07-02T01:22:23;18.10;99.90
75210;DHT22;63796;53.136;14.882;2023-07-02T01:24:52;18.10;99.90
75210;DHT22;63796;53.136;14.882;2023-07-02T01:27:20;18.20;99.90
75210;DHT22;63796;53.136;14.882;2023-07-02T01:29:51;18.00;99.90
75210;DHT22;63796;53.136;14.882;2023-07-02T01:32:19;18.00;99.90
75210;DHT22;63796;53.136;14.882;2023-07-02T01:34:47;17.80;99.90
75210;DHT22;63796;53.136;14.882;2023-07-02T01:37:16;17.70;99.90
75210;DHT22;63796;53.136;14.882;2023-07-02T01:39:43;17.60;99.90
75210;DHT22;63796;53.136;14.882;2023-07-02T01:44:39;17.50;99.90
75210;DHT22;63796;53.136;14.882;2023-07-02T01:47:06;17.60;99.90
75210;DHT22;63796;53.136;14.882;2023-07-02T01:49:33;17.60;99.90
75210;DHT22;63796;53.136;14.882;2023-07-02T01:52:03;17.60;99.90
75210;DHT22;63796;53.136;14.882;2023-07-02T01:54:32;17.70;99.90
75210;DHT22;63796;53.136;14.882;2023-07-02T01:57:00;17.60;99.90
75210;DHT22;63796;53.136;14.882;2023-07-02T01:59:27;17.60;99.90
75210;DHT22;63796;53.136;14.882;2023-07-02T02:01:55;17.60;99.90
75210;DHT22;63796;53.136;14.882;2023-07-02T02:04:22;17.60;99.90
75210;DHT22;63796;53.136;14.882;2023-07-02T02:06:49;17.50;99.90
75210;DHT22;63796;53.136;14.882;2023-07-02T02:09:17;17.50;99.90
75210;DHT22;63796;53.136;14.882;2023-07-02T02:11:45;17.50;99.90
75210;DHT22;63796;53.136;14.882;2023-07-02T02:14:15;17.50;99.90
75210;DHT22;63796;53.136;14.882;2023-07-02T02:16:43;17.50;99.90
75210;DHT22;63796;53.136;14.882;2023-07-02T02:19:13;17.50;99.90
75210;DHT22;63796;53.136;14.882;2023-07-02T02:21:42;17.50;99.90
75210;DHT22;63796;53.136;14.882;2023-07-02T02:24:10;17.30;99.90
75210;DHT22;63796;53.136;14.882;2023-07-02T02:26:37;17.30;99.90
75210;DHT22;63796;53.136;14.882;2023-07-02T02:29:05;17.40;99.90
75210;DHT22;63796;53.136;14.882;2023-07-02T02:31:32;17.30;99.90
75210;DHT22;63796;53.136;14.882;2023-07-02T02:33:59;17.30;99.90
75210;DHT22;63796;53.136;14.882;2023-07-02T02:36:26;17.30;99.90
75210;DHT22;63796;53.136;14.882;2023-07-02T02:38:54;17.20;99.90
75210;DHT22;63796;53.136;14.882;2023-07-02T02:41:21;17.20;99.90
75210;DHT22;63796;53.136;14.882;2023-07-02T02:43:48;17.30;99.90
75210;DHT22;63796;53.136;14.882;2023-07-02T02:46:21;17.30;99.90
75210;DHT22;63796;53.136;14.882;2023-07-02T02:48:50;17.20;99.90
75210;DHT22;63796;53.136;14.882;2023-07-02T02:51:18;17.10;99.90
75210;DHT22;63796;53.136;14.882;2023-07-02T02:53:45;17.10;99.90
75210;DHT22;63796;53.136;14.882;2023-07-02T02:56:13;17.20;99.90
75210;DHT22;63796;53.136;14.882;2023-07-02T02:58:40;17.20;99.90
75210;DHT22;63796;53.136;14.882;2023-07-02T03:01:08;17.10;99.90
75210;DHT22;63796;53.136;14.882;2023-07-02T03:03:38;17.10;99.90
75210;DHT22;63796;53.136;14.882;2023-07-02T03:06:06;17.10;99.90
75210;DHT22;63796;53.136;14.882;2023-07-02T03:08:33;17.00;99.90
75210;DHT22;63796;53.136;14.882;2023-07-02T03:11:00;16.90;99.90
75210;DHT22;63796;53.136;14.882;2023-07-02T03:13:28;16.80;99.90
75210;DHT22;63796;53.136;14.882;2023-07-02T03:15:55;16.80;99.90
75210;DHT22;63796;53.136;14.882;2023-07-02T03:18:22;16.80;99.90
75210;DHT22;63796;53.136;14.882;2023-07-02T03:20:49;16.70;99.90
75210;DHT22;63796;53.136;14.882;2023-07-02T03:23:16;16.70;99.90
75210;DHT22;63796;53.136;14.882;2023-07-02T03:25:44;16.70;99.90
75210;DHT22;63796;53.136;14.882;2023-07-02T03:28:11;16.70;99.90
75210;DHT22;63796;53.136;14.882;2023-07-02T03:30:38;16.70;99.90
75210;DHT22;63796;53.136;14.882;2023-07-02T03:33:07;16.70;99.90
75210;DHT22;63796;53.136;14.882;2023-07-02T03:35:35;16.70;99.90
75210;DHT22;63796;53.136;14.882;2023-07-02T03:38:04;16.70;99.90
75210;DHT22;63796;53.136;14.882;2023-07-02T03:40:32;16.70;99.90
75210;DHT22;63796;53.136;14.882;2023-07-02T03:43:00;16.80;99.90
75210;DHT22;63796;53.136;14.882;2023-07-02T03:45:27;16.80;99.90
75210;DHT22;63796;53.136;14.882;2023-07-02T03:47:55;17.00;99.90
75210;DHT22;63796;53.136;14.882;2023-07-02T03:50:22;17.20;99.90
75210;DHT22;63796;53.136;14.882;2023-07-02T03:52:49;17.30;99.90
75210;DHT22;63796;53.136;14.882;2023-07-02T03:55:16;17.40;99.90
75210;DHT22;63796;53.136;14.882;2023-07-02T03:57:44;17.50;99.90
75210;DHT22;63796;53.136;14.882;2023-07-02T04:00:11;17.70;99.90
75210;DHT22;63796;53.136;14.882;2023-07-02T04:02:58;17.60;99.90
75210;DHT22;63796;53.136;14.882;2023-07-02T04:05:26;17.60;99.90
75210;DHT22;63796;53.136;14.882;2023-07-02T04:07:54;17.50;99.90
75210;DHT22;63796;53.136;14.882;2023-07-02T04:10:21;17.50;99.90
75210;DHT22;63796;53.136;14.882;2023-07-02T04:12:48;17.40;99.90
75210;DHT22;63796;53.136;14.882;2023-07-02T04:15:16;17.40;99.90
75210;DHT22;63796;53.136;14.882;2023-07-02T04:17:43;17.30;99.90
75210;DHT22;63796;53.136;14.882;2023-07-02T04:20:10;17.50;99.90
75210;DHT22;63796;53.136;14.882;2023-07-02T04:22:38;18.20;99.90
75210;DHT22;63796;53.136;14.882;2023-07-02T04:25:05;18.40;99.90
75210;DHT22;63796;53.136;14.882;2023-07-02T04:27:53;19.10;99.90
75210;DHT22;63796;53.136;14.882;2023-07-02T04:30:23;19.90;99.90
75210;DHT22;63796;53.136;14.882;2023-07-02T04:32:51;19.90;99.90
75210;DHT22;63796;53.136;14.882;2023-07-02T04:35:19;20.40;99.90
75210;DHT22;63796;53.136;14.882;2023-07-02T04:37:47;20.50;99.90
75210;DHT22;63796;53.136;14.882;2023-07-02T04:40:14;21.30;99.90
75210;DHT22;63796;53.136;14.882;2023-07-02T04:42:42;21.70;99.90
75210;DHT22;63796;53.136;14.882;2023-07-02T04:45:14;21.10;99.90
75210;DHT22;63796;53.136;14.882;2023-07-02T04:47:44;22.00;99.90
75210;DHT22;63796;53.136;14.882;2023-07-02T04:50:15;22.50;99.90
75210;DHT22;63796;53.136;14.882;2023-07-02T04:52:43;23.00;99.90
75210;DHT22;63796;53.136;14.882;2023-07-02T04:55:10;23.70;99.90
75210;DHT22;63796;53.136;14.882;2023-07-02T04:57:38;23.40;99.90
75210;DHT22;63796;53.136;14.882;2023-07-02T05:00:05;21.70;99.90
75210;DHT22;63796;53.136;14.882;2023-07-02T05:02:33;20.60;99.90
75210;DHT22;63796;53.136;14.882;2023-07-02T05:05:00;19.60;99.90
75210;DHT22;63796;53.136;14.882;2023-07-02T05:07:27;19.80;99.90
75210;DHT22;63796;53.136;14.882;2023-07-02T05:09:55;19.90;99.90
75210;DHT22;63796;53.136;14.882;2023-07-02T05:12:22;20.00;99.90
75210;DHT22;63796;53.136;14.882;2023-07-02T05:14:50;20.10;99.90
75210;DHT22;63796;53.136;14.882;2023-07-02T05:17:17;20.00;99.90
75210;DHT22;63796;53.136;14.882;2023-07-02T05:19:44;20.20;99.90
75210;DHT22;63796;53.136;14.882;2023-07-02T05:22:11;20.00;99.90
75210;DHT22;63796;53.136;14.882;2023-07-02T05:24:39;20.30;99.90
75210;DHT22;63796;53.136;14.882;2023-07-02T05:27:07;20.40;99.90
75210;DHT22;63796;53.136;14.882;2023-07-02T05:29:35;20.70;99.90
75210;DHT22;63796;53.136;14.882;2023-07-02T05:32:02;20.80;99.90
75210;DHT22;63796;53.136;14.882;2023-07-02T05:34:30;20.80;99.90
75210;DHT22;63796;53.136;14.882;2023-07-02T05:36:57;20.80;99.90
75210;DHT22;63796;53.136;14.882;2023-07-02T05:39:24;21.10;99.90
75210;DHT22;63796;53.136;14.882;2023-07-02T05:41:52;20.90;99.90
75210;DHT22;63796;53.136;14.882;2023-07-02T05:44:19;22.20;99.90
75210;DHT22;63796;53.136;14.882;2023-07-02T05:46:46;24.90;99.90
75210;DHT22;63796;53.136;14.882;2023-07-02T05:49:14;26.00;99.90
75210;DHT22;63796;53.136;14.882;2023-07-02T05:51:41;27.80;99.90
75210;DHT22;63796;53.136;14.882;2023-07-02T05:54:09;28.30;99.90
75210;DHT22;63796;53.136;14.882;2023-07-02T05:56:36;27.10;99.90
75210;DHT22;63796;53.136;14.882;2023-07-02T05:59:03;27.80;99.90
75210;DHT22;63796;53.136;14.882;2023-07-02T06:01:30;28.80;99.90
75210;DHT22;63796;53.136;14.882;2023-07-02T06:03:57;26.30;99.90
75210;DHT22;63796;53.136;14.882;2023-07-02T06:06:25;25.00;99.90
75210;DHT22;63796;53.136;14.882;2023-07-02T06:08:52;23.30;99.90
75210;DHT22;63796;53.136;14.882;2023-07-02T06:11:19;23.00;99.90
75210;DHT22;63796;53.136;14.882;2023-07-02T06:13:47;22.20;99.90
75210;DHT22;63796;53.136;14.882;2023-07-02T06:16:14;22.40;99.90
75210;DHT22;63796;53.136;14.882;2023-07-02T06:18:41;22.80;99.90
75210;DHT22;63796;53.136;14.882;2023-07-02T06:21:09;22.50;99.90
75210;DHT22;63796;53.136;14.882;2023-07-02T06:23:42;24.00;99.90
75210;DHT22;63796;53.136;14.882;2023-07-02T06:26:10;23.80;99.90
75210;DHT22;63796;53.136;14.882;2023-07-02T06:28:38;26.00;99.90
75210;DHT22;63796;53.136;14.882;2023-07-02T06:31:05;27.60;99.90
75210;DHT22;63796;53.136;14.882;2023-07-02T06:33:33;29.90;99.90
75210;DHT22;63796;53.136;14.882;2023-07-02T06:36:00;30.50;99.90
75210;DHT22;63796;53.136;14.882;2023-07-02T06:38:27;31.00;99.90
75210;DHT22;63796;53.136;14.882;2023-07-02T06:40:54;30.80;99.90
75210;DHT22;63796;53.136;14.882;2023-07-02T06:43:22;29.20;99.90
75210;DHT22;63796;53.136;14.882;2023-07-02T06:45:49;32.10;99.90
75210;DHT22;63796;53.136;14.882;2023-07-02T06:48:17;30.50;99.90
75210;DHT22;63796;53.136;14.882;2023-07-02T06:50:44;30.20;99.90
75210;DHT22;63796;53.136;14.882;2023-07-02T06:53:13;32.10;99.90
75210;DHT22;63796;53.136;14.882;2023-07-02T06:55:40;31.60;99.90
75210;DHT22;63796;53.136;14.882;2023-07-02T06:58:08;32.20;99.90
75210;DHT22;63796;53.136;14.882;2023-07-02T07:00:35;34.80;95.80
75210;DHT22;63796;53.136;14.882;2023-07-02T07:03:05;29.70;99.90
75210;DHT22;63796;53.136;14.882;2023-07-02T07:05:33;26.60;99.90
75210;DHT22;63796;53.136;14.882;2023-07-02T07:08:00;24.60;99.90
75210;DHT22;63796;53.136;14.882;2023-07-02T07:10:28;23.40;99.90
75210;DHT22;63796;53.136;14.882;2023-07-02T07:13:01;25.10;99.90
75210;DHT22;63796;53.136;14.882;2023-07-02T07:15:32;28.60;99.90
75210;DHT22;63796;53.136;14.882;2023-07-02T07:18:01;29.30;99.90
75210;DHT22;63796;53.136;14.882;2023-07-02T07:20:30;28.90;99.90
75210;DHT22;63796;53.136;14.882;2023-07-02T07:22:57;29.40;99.90
75210;DHT22;63796;53.136;14.882;2023-07-02T07:25:25;27.00;99.90
75210;DHT22;63796;53.136;14.882;2023-07-02T07:27:52;26.30;99.90
75210;DHT22;63796;53.136;14.882;2023-07-02T07:30:20;24.10;99.90
75210;DHT22;63796;53.136;14.882;2023-07-02T07:32:51;22.90;99.90
75210;DHT22;63796;53.136;14.882;2023-07-02T07:35:20;25.50;99.90
75210;DHT22;63796;53.136;14.882;2023-07-02T07:37:49;28.40;99.90
75210;DHT22;63796;53.136;14.882;2023-07-02T07:40:19;29.10;99.90
75210;DHT22;63796;53.136;14.882;2023-07-02T07:42:49;25.50;99.90
75210;DHT22;63796;53.136;14.882;2023-07-02T07:45:16;27.60;99.90
75210;DHT22;63796;53.136;14.882;2023-07-02T07:47:44;25.90;99.90
75210;DHT22;63796;53.136;14.882;2023-07-02T07:50:11;28.00;99.90
75210;DHT22;63796;53.136;14.882;2023-07-02T07:52:39;30.70;99.90
75210;DHT22;63796;53.136;14.882;2023-07-02T07:55:07;30.80;99.90
75210;DHT22;63796;53.136;14.882;2023-07-02T07:57:35;30.80;99.90
75210;DHT22;63796;53.136;14.882;2023-07-02T08:00:04;31.20;99.10
75210;DHT22;63796;53.136;14.882;2023-07-02T08:02:39;33.20;98.90
75210;DHT22;63796;53.136;14.882;2023-07-02T08:05:07;32.10;94.70
75210;DHT22;63796;53.136;14.882;2023-07-02T08:07:34;30.70;96.50
75210;DHT22;63796;53.136;14.882;2023-07-02T08:10:01;31.10;96.40
75210;DHT22;63796;53.136;14.882;2023-07-02T08:12:31;31.00;98.60
75210;DHT22;63796;53.136;14.882;2023-07-02T08:14:59;35.10;93.20
75210;DHT22;63796;53.136;14.882;2023-07-02T08:17:27;34.60;91.00
75210;DHT22;63796;53.136;14.882;2023-07-02T08:19:54;34.40;91.10
75210;DHT22;63796;53.136;14.882;2023-07-02T08:22:21;32.80;91.40
75210;DHT22;63796;53.136;14.882;2023-07-02T08:24:49;32.30;90.70
75210;DHT22;63796;53.136;14.882;2023-07-02T08:27:16;33.40;91.60
75210;DHT22;63796;53.136;14.882;2023-07-02T08:29:46;32.30;90.50
75210;DHT22;63796;53.136;14.882;2023-07-02T08:32:14;30.10;90.60
75210;DHT22;63796;53.136;14.882;2023-07-02T08:34:42;27.80;94.80
75210;DHT22;63796;53.136;14.882;2023-07-02T08:37:10;26.70;97.90
75210;DHT22;63796;53.136;14.882;2023-07-02T08:39:37;28.70;95.90
75210;DHT22;63796;53.136;14.882;2023-07-02T08:42:06;31.40;91.50
75210;DHT22;63796;53.136;14.882;2023-07-02T08:44:34;30.00;92.30
75210;DHT22;63796;53.136;14.882;2023-07-02T08:47:02;28.50;93.80
75210;DHT22;63796;53.136;14.882;2023-07-02T08:49:30;29.60;92.00
75210;DHT22;63796;53.136;14.882;2023-07-02T08:51:57;29.30;93.70
75210;DHT22;63796;53.136;14.882;2023-07-02T08:54:25;31.30;90.00
75210;DHT22;63796;53.136;14.882;2023-07-02T08:56:52;31.40;90.60
75210;DHT22;63796;53.136;14.882;2023-07-02T08:59:19;30.00;91.50
75210;DHT22;63796;53.136;14.882;2023-07-02T09:01:48;31.60;88.70
75210;DHT22;63796;53.136;14.882;2023-07-02T09:04:20;28.10;90.90
75210;DHT22;63796;53.136;14.882;2023-07-02T09:07:06;27.80;91.50
75210;DHT22;63796;53.136;14.882;2023-07-02T09:09:47;26.50;94.20
75210;DHT22;63796;53.136;14.882;2023-07-02T09:14:55;24.80;99.20
75210;DHT22;63796;53.136;14.882;2023-07-02T09:17:28;24.90;99.80
75210;DHT22;63796;53.136;14.882;2023-07-02T09:19:57;24.60;99.90
75210;DHT22;63796;53.136;14.882;2023-07-02T09:22:27;25.80;98.20
75210;DHT22;63796;53.136;14.882;2023-07-02T09:24:56;25.70;98.30
75210;DHT22;63796;53.136;14.882;2023-07-02T09:30:21;29.90;94.30
75210;DHT22;63796;53.136;14.882;2023-07-02T09:32:49;28.30;93.10
75210;DHT22;63796;53.136;14.882;2023-07-02T09:35:17;26.70;95.40
75210;DHT22;63796;53.136;14.882;2023-07-02T09:37:45;27.90;95.20
75210;DHT22;63796;53.136;14.882;2023-07-02T09:40:13;28.00;92.70
75210;DHT22;63796;53.136;14.882;2023-07-02T09:42:41;31.50;91.10
75210;DHT22;63796;53.136;14.882;2023-07-02T09:45:09;31.00;86.20
75210;DHT22;63796;53.136;14.882;2023-07-02T09:47:39;30.20;86.90
75210;DHT22;63796;53.136;14.882;2023-07-02T09:50:12;29.80;86.60
75210;DHT22;63796;53.136;14.882;2023-07-02T09:52:41;27.10;90.90
75210;DHT22;63796;53.136;14.882;2023-07-02T09:55:08;27.50;92.30
75210;DHT22;63796;53.136;14.882;2023-07-02T09:57:36;26.70;92.60
75210;DHT22;63796;53.136;14.882;2023-07-02T10:00:04;25.80;92.60
75210;DHT22;63796;53.136;14.882;2023-07-02T10:02:34;28.60;89.10
75210;DHT22;63796;53.136;14.882;2023-07-02T10:05:03;29.70;87.80
75210;DHT22;63796;53.136;14.882;2023-07-02T10:07:31;29.90;86.30
75210;DHT22;63796;53.136;14.882;2023-07-02T10:10:00;27.60;89.90
75210;DHT22;63796;53.136;14.882;2023-07-02T10:12:28;26.20;91.20
75210;DHT22;63796;53.136;14.882;2023-07-02T10:14:57;25.60;90.40
75210;DHT22;63796;53.136;14.882;2023-07-02T10:17:32;27.60;90.00
75210;DHT22;63796;53.136;14.882;2023-07-02T10:20:05;26.90;90.40
75210;DHT22;63796;53.136;14.882;2023-07-02T10:22:47;25.20;92.10
75210;DHT22;63796;53.136;14.882;2023-07-02T10:25:26;24.90;93.60
75210;DHT22;63796;53.136;14.882;2023-07-02T10:27:55;26.50;92.70
75210;DHT22;63796;53.136;14.882;2023-07-02T10:30:35;25.70;93.90
75210;DHT22;63796;53.136;14.882;2023-07-02T10:33:07;24.90;94.30
75210;DHT22;63796;53.136;14.882;2023-07-02T10:35:39;23.90;95.70
75210;DHT22;63796;53.136;14.882;2023-07-02T10:38:15;23.70;95.90
75210;DHT22;63796;53.136;14.882;2023-07-02T10:40:45;23.30;96.70
75210;DHT22;63796;53.136;14.882;2023-07-02T10:43:13;23.50;96.90
75210;DHT22;63796;53.136;14.882;2023-07-02T10:45:40;23.70;96.40
75210;DHT22;63796;53.136;14.882;2023-07-02T10:48:11;23.70;96.10
75210;DHT22;63796;53.136;14.882;2023-07-02T10:50:38;24.20;97.10
75210;DHT22;63796;53.136;14.882;2023-07-02T10:53:05;26.40;93.90
75210;DHT22;63796;53.136;14.882;2023-07-02T10:55:33;25.40;94.60
75210;DHT22;63796;53.136;14.882;2023-07-02T10:58:04;24.80;96.50
75210;DHT22;63796;53.136;14.882;2023-07-02T11:00:33;26.20;95.60
75210;DHT22;63796;53.136;14.882;2023-07-02T11:03:18;24.20;96.80
75210;DHT22;63796;53.136;14.882;2023-07-02T11:05:52;25.10;96.30
75210;DHT22;63796;53.136;14.882;2023-07-02T11:08:21;25.40;95.00
75210;DHT22;63796;53.136;14.882;2023-07-02T11:10:50;25.20;96.90
75210;DHT22;63796;53.136;14.882;2023-07-02T11:13:18;27.00;95.10
75210;DHT22;63796;53.136;14.882;2023-07-02T11:15:46;29.90;91.90
75210;DHT22;63796;53.136;14.882;2023-07-02T11:18:15;30.30;88.80
75210;DHT22;63796;53.136;14.882;2023-07-02T11:20:44;28.50;89.60
75210;DHT22;63796;53.136;14.882;2023-07-02T11:23:19;28.90;91.00
75210;DHT22;63796;53.136;14.882;2023-07-02T11:26:02;31.00;86.20
75210;DHT22;63796;53.136;14.882;2023-07-02T11:28:31;31.70;81.00
75210;DHT22;63796;53.136;14.882;2023-07-02T11:31:04;31.90;83.00
75210;DHT22;63796;53.136;14.882;2023-07-02T11:33:38;29.90;85.40
75210;DHT22;63796;53.136;14.882;2023-07-02T11:36:07;29.40;88.30
75210;DHT22;63796;53.136;14.882;2023-07-02T11:38:46;27.60;91.10
75210;DHT22;63796;53.136;14.882;2023-07-02T11:41:16;27.40;92.40
75210;DHT22;63796;53.136;14.882;2023-07-02T11:43:47;30.10;90.30
75210;DHT22;63796;53.136;14.882;2023-07-02T11:46:14;30.70;87.40
75210;DHT22;63796;53.136;14.882;2023-07-02T11:48:42;32.20;83.00
75210;DHT22;63796;53.136;14.882;2023-07-02T11:51:09;27.70;88.80
75210;DHT22;63796;53.136;14.882;2023-07-02T11:53:36;26.60;91.40
75210;DHT22;63796;53.136;14.882;2023-07-02T11:56:04;26.30;93.00
75210;DHT22;63796;53.136;14.882;2023-07-02T11:58:33;25.80;93.10
75210;DHT22;63796;53.136;14.882;2023-07-02T12:01:01;25.50;94.90
75210;DHT22;63796;53.136;14.882;2023-07-02T12:03:28;24.60;94.30
75210;DHT22;63796;53.136;14.882;2023-07-02T12:05:57;24.70;94.10
75210;DHT22;63796;53.136;14.882;2023-07-02T12:08:24;24.30;95.10
75210;DHT22;63796;53.136;14.882;2023-07-02T12:10:51;24.80;94.20
75210;DHT22;63796;53.136;14.882;2023-07-02T12:13:19;24.60;95.40
75210;DHT22;63796;53.136;14.882;2023-07-02T12:15:49;25.10;95.40
75210;DHT22;63796;53.136;14.882;2023-07-02T12:18:18;25.90;95.10
75210;DHT22;63796;53.136;14.882;2023-07-02T12:20:45;26.20;94.90
75210;DHT22;63796;53.136;14.882;2023-07-02T12:23:12;25.20;93.90
75210;DHT22;63796;53.136;14.882;2023-07-02T12:25:40;25.00;95.20
75210;DHT22;63796;53.136;14.882;2023-07-02T12:28:08;25.70;96.10
75210;DHT22;63796;53.136;14.882;2023-07-02T12:30:38;25.90;95.80
75210;DHT22;63796;53.136;14.882;2023-07-02T12:33:05;25.90;95.60
75210;DHT22;63796;53.136;14.882;2023-07-02T12:35:33;26.00;95.10
75210;DHT22;63796;53.136;14.882;2023-07-02T12:38:00;26.60;94.90
75210;DHT22;63796;53.136;14.882;2023-07-02T12:40:27;25.70;94.30
75210;DHT22;63796;53.136;14.882;2023-07-02T12:42:55;25.30;95.40
75210;DHT22;63796;53.136;14.882;2023-07-02T12:45:23;25.00;95.50
75210;DHT22;63796;53.136;14.882;2023-07-02T12:47:50;24.50;95.60
75210;DHT22;63796;53.136;14.882;2023-07-02T12:50:18;24.90;97.10
75210;DHT22;63796;53.136;14.882;2023-07-02T12:52:46;24.60;96.60
75210;DHT22;63796;53.136;14.882;2023-07-02T12:55:13;25.10;97.60
75210;DHT22;63796;53.136;14.882;2023-07-02T12:57:41;25.40;97.40
75210;DHT22;63796;53.136;14.882;2023-07-02T13:00:08;25.00;97.50
75210;DHT22;63796;53.136;14.882;2023-07-02T13:02:36;24.70;95.70
75210;DHT22;63796;53.136;14.882;2023-07-02T13:05:24;25.10;96.50
75210;DHT22;63796;53.136;14.882;2023-07-02T13:07:51;24.90;96.10
75210;DHT22;63796;53.136;14.882;2023-07-02T13:10:19;25.40;97.10
75210;DHT22;63796;53.136;14.882;2023-07-02T13:12:46;25.50;95.70
75210;DHT22;63796;53.136;14.882;2023-07-02T13:15:13;25.60;95.90
75210;DHT22;63796;53.136;14.882;2023-07-02T13:17:41;25.30;95.90
75210;DHT22;63796;53.136;14.882;2023-07-02T13:20:13;25.10;96.20
75210;DHT22;63796;53.136;14.882;2023-07-02T13:22:41;25.30;96.50
75210;DHT22;63796;53.136;14.882;2023-07-02T13:25:08;24.80;95.70
75210;DHT22;63796;53.136;14.882;2023-07-02T13:27:37;24.30;92.80
75210;DHT22;63796;53.136;14.882;2023-07-02T13:30:04;24.70;93.20
75210;DHT22;63796;53.136;14.882;2023-07-02T13:32:32;24.80;92.10
75210;DHT22;63796;53.136;14.882;2023-07-02T13:34:59;24.60;92.70
75210;DHT22;63796;53.136;14.882;2023-07-02T13:37:27;24.40;91.50
75210;DHT22;63796;53.136;14.882;2023-07-02T13:39:54;24.40;90.50
75210;DHT22;63796;53.136;14.882;2023-07-02T13:42:21;24.40;91.50
75210;DHT22;63796;53.136;14.882;2023-07-02T13:44:48;24.50;91.40
75210;DHT22;63796;53.136;14.882;2023-07-02T13:47:16;24.70;91.70
75210;DHT22;63796;53.136;14.882;2023-07-02T13:49:43;24.30;90.20
75210;DHT22;63796;53.136;14.882;2023-07-02T13:52:10;24.40;90.70
75210;DHT22;63796;53.136;14.882;2023-07-02T13:54:38;24.00;90.30
75210;DHT22;63796;53.136;14.882;2023-07-02T13:57:05;24.10;91.00
75210;DHT22;63796;53.136;14.882;2023-07-02T13:59:32;24.10;89.30
75210;DHT22;63796;53.136;14.882;2023-07-02T14:02:00;24.40;90.80
75210;DHT22;63796;53.136;14.882;2023-07-02T14:04:27;24.10;90.30
75210;DHT22;63796;53.136;14.882;2023-07-02T14:06:55;24.10;91.40
75210;DHT22;63796;53.136;14.882;2023-07-02T14:09:22;24.30;91.30
75210;DHT22;63796;53.136;14.882;2023-07-02T14:11:49;24.70;90.40
75210;DHT22;63796;53.136;14.882;2023-07-02T14:14:16;24.70;90.10
75210;DHT22;63796;53.136;14.882;2023-07-02T14:16:43;24.60;90.80
75210;DHT22;63796;53.136;14.882;2023-07-02T14:19:11;24.60;91.40
75210;DHT22;63796;53.136;14.882;2023-07-02T14:21:39;24.60;91.20
75210;DHT22;63796;53.136;14.882;2023-07-02T14:24:06;24.40;90.90
75210;DHT22;63796;53.136;14.882;2023-07-02T14:26:33;24.40;91.00
75210;DHT22;63796;53.136;14.882;2023-07-02T14:29:01;24.20;91.00
75210;DHT22;63796;53.136;14.882;2023-07-02T14:31:28;24.10;91.00
75210;DHT22;63796;53.136;14.882;2023-07-02T14:33:56;23.90;91.80
75210;DHT22;63796;53.136;14.882;2023-07-02T14:36:23;23.70;91.50
75210;DHT22;63796;53.136;14.882;2023-07-02T14:38:50;23.80;91.90
75210;DHT22;63796;53.136;14.882;2023-07-02T14:41:17;24.00;92.30
75210;DHT22;63796;53.136;14.882;2023-07-02T14:43:45;24.00;91.70
75210;DHT22;63796;53.136;14.882;2023-07-02T14:46:15;24.10;91.10
75210;DHT22;63796;53.136;14.882;2023-07-02T14:48:45;24.20;90.40
75210;DHT22;63796;53.136;14.882;2023-07-02T14:51:12;24.00;91.00
75210;DHT22;63796;53.136;14.882;2023-07-02T14:53:39;24.10;92.30
75210;DHT22;63796;53.136;14.882;2023-07-02T14:56:07;24.40;90.50
75210;DHT22;63796;53.136;14.882;2023-07-02T14:58:34;24.40;90.80
75210;DHT22;63796;53.136;14.882;2023-07-02T15:01:02;24.40;91.10
75210;DHT22;63796;53.136;14.882;2023-07-02T15:03:30;24.70;91.30
75210;DHT22;63796;53.136;14.882;2023-07-02T15:06:08;24.80;90.40
75210;DHT22;63796;53.136;14.882;2023-07-02T15:08:36;24.50;91.60
75210;DHT22;63796;53.136;14.882;2023-07-02T15:11:04;24.60;91.80
75210;DHT22;63796;53.136;14.882;2023-07-02T15:13:32;24.40;92.40
75210;DHT22;63796;53.136;14.882;2023-07-02T15:16:00;24.20;92.40
75210;DHT22;63796;53.136;14.882;2023-07-02T15:18:27;23.80;92.00
75210;DHT22;63796;53.136;14.882;2023-07-02T15:20:55;23.80;92.00
75210;DHT22;63796;53.136;14.882;2023-07-02T15:23:23;23.80;91.40
75210;DHT22;63796;53.136;14.882;2023-07-02T15:25:55;23.70;91.50
75210;DHT22;63796;53.136;14.882;2023-07-02T15:28:25;23.60;92.00
75210;DHT22;63796;53.136;14.882;2023-07-02T15:30:54;23.70;90.60